createdAt,value
2018-12-23T00:02:14.458Z,22.57
2018-12-23T00:04:41.036Z,22.13
2018-12-23T00:07:07.514Z,24.37
2018-12-23T00:09:34.010Z,23.10
2018-12-23T00:12:00.495Z,24.00
2018-12-23T00:14:26.995Z,24.90
2018-12-23T00:16:53.600Z,23.80
2018-12-23T00:19:20.115Z,21.30
2018-12-23T00:21:46.650Z,19.53
2018-12-23T00:24:13.380Z,16.23
2018-12-23T00:26:39.882Z,21.03
2018-12-23T00:29:06.372Z,21.00
2018-12-23T00:31:33.070Z,21.53
2018-12-23T00:33:59.549Z,21.00
2018-12-23T00:36:26.162Z,23.10
2018-12-23T00:38:52.667Z,18.13
2018-12-23T00:41:19.105Z,18.83
2018-12-23T00:43:45.568Z,17.50
2018-12-23T00:46:12.330Z,17.60
2018-12-23T00:48:38.766Z,16.63
2018-12-23T00:51:05.232Z,17.13
2018-12-23T00:53:31.694Z,14.67
2018-12-23T00:55:58.162Z,14.37
2018-12-23T00:58:24.657Z,16.33
2018-12-23T01:00:51.250Z,18.47
2018-12-23T01:03:17.764Z,14.30
2018-12-23T01:05:44.235Z,17.03
2018-12-23T01:08:10.910Z,14.57
2018-12-23T01:10:37.417Z,18.87
2018-12-23T01:13:03.940Z,13.43
2018-12-23T01:15:30.424Z,16.97
2018-12-23T01:17:56.879Z,17.50
2018-12-23T01:20:23.347Z,18.60
2018-12-23T01:22:50.059Z,16.77
2018-12-23T01:32:44.123Z,14.13
2018-12-23T01:35:10.669Z,13.97
2018-12-23T01:37:37.315Z,16.60
2018-12-23T01:40:04.572Z,20.10
2018-12-23T01:42:31.192Z,20.00
2018-12-23T01:44:57.721Z,18.67
2018-12-23T01:47:24.293Z,22.97
2018-12-23T01:49:50.809Z,18.50
2018-12-23T01:52:17.421Z,17.73
2018-12-23T01:54:43.985Z,18.37
2018-12-23T01:57:10.604Z,18.87
2018-12-23T01:59:37.128Z,19.03
2018-12-23T02:02:03.916Z,18.77
2018-12-23T02:04:30.461Z,20.33
2018-12-23T02:06:57.228Z,23.10
2018-12-23T02:09:24.133Z,20.33
2018-12-23T02:11:50.694Z,22.17
2018-12-23T02:14:17.599Z,21.97
2018-12-23T02:16:44.197Z,22.63
2018-12-23T02:19:10.771Z,23.70
2018-12-23T02:21:37.574Z,20.93
2018-12-23T02:24:04.145Z,23.87
2018-12-23T02:26:30.668Z,22.17
2018-12-23T02:28:57.202Z,26.53
2018-12-23T02:31:23.770Z,25.90
2018-12-23T02:33:50.610Z,24.80
2018-12-23T02:36:17.208Z,25.20
2018-12-23T02:38:44.043Z,27.63
2018-12-23T02:41:10.771Z,25.03
2018-12-23T02:43:37.349Z,26.07
2018-12-23T02:46:03.989Z,31.83
2018-12-23T02:48:30.508Z,25.77
2018-12-23T02:50:57.094Z,28.60
2018-12-23T02:53:24.034Z,29.00
2018-12-23T02:55:50.569Z,29.40
2018-12-23T02:58:17.217Z,24.27
2018-12-23T03:00:44.244Z,28.07
2018-12-23T03:03:10.934Z,30.43
2018-12-23T03:05:37.490Z,28.33
2018-12-23T03:08:04.366Z,26.00
2018-12-23T03:10:30.988Z,30.20
2018-12-23T03:12:57.554Z,28.70
2018-12-23T03:15:24.200Z,24.50
2018-12-23T03:17:50.841Z,28.60
2018-12-23T03:20:17.499Z,29.83
2018-12-23T03:22:44.205Z,29.93
2018-12-23T03:25:10.828Z,30.17
2018-12-23T03:27:37.480Z,26.10
2018-12-23T03:30:04.669Z,34.50
2018-12-23T03:32:31.322Z,32.57
2018-12-23T03:34:58.033Z,32.83
2018-12-23T03:37:24.611Z,32.13
2018-12-23T03:39:51.228Z,29.27
2018-12-23T03:42:17.815Z,32.03
2018-12-23T03:44:44.677Z,34.57
2018-12-23T03:47:11.241Z,32.87
2018-12-23T03:49:37.770Z,35.93
2018-12-23T03:52:04.616Z,38.37
2018-12-23T03:54:31.274Z,30.47
2018-12-23T03:56:57.938Z,28.13
2018-12-23T03:59:24.680Z,32.10
2018-12-23T04:01:51.350Z,26.87
2018-12-23T04:04:17.969Z,22.33
2018-12-23T04:06:44.571Z,27.20
2018-12-23T04:09:11.073Z,26.13
2018-12-23T04:11:37.658Z,29.47
2018-12-23T04:14:04.559Z,28.83
2018-12-23T04:16:31.225Z,24.17
2018-12-23T04:18:57.807Z,26.13
2018-12-23T04:21:24.425Z,24.40
2018-12-23T04:23:51.016Z,25.87
2018-12-23T04:26:17.656Z,25.83
2018-12-23T04:28:44.484Z,24.87
2018-12-23T04:31:11.024Z,30.30
2018-12-23T04:33:37.623Z,24.07
2018-12-23T04:36:04.208Z,25.10
2018-12-23T04:38:30.817Z,25.50
2018-12-23T04:40:57.424Z,23.40
2018-12-23T04:43:24.259Z,26.60
2018-12-23T04:45:50.797Z,23.23
2018-12-23T04:48:17.330Z,24.70
2018-12-23T04:50:43.952Z,23.63
2018-12-23T04:53:10.505Z,28.63
2018-12-23T04:55:37.150Z,26.10
2018-12-23T04:58:03.689Z,24.93
2018-12-23T05:00:30.208Z,22.93
2018-12-23T05:02:56.862Z,27.00
2018-12-23T05:05:23.616Z,27.50
2018-12-23T05:07:50.248Z,25.63
2018-12-23T05:10:16.829Z,25.70
2018-12-23T05:12:43.358Z,29.03
2018-12-23T05:15:09.924Z,28.17
2018-12-23T05:17:36.540Z,24.60
2018-12-23T05:20:03.357Z,26.83
2018-12-23T05:22:29.952Z,28.47
2018-12-23T05:24:56.522Z,25.17
2018-12-23T05:27:23.368Z,30.97
2018-12-23T05:29:49.938Z,26.57
2018-12-23T05:32:16.527Z,30.10
2018-12-23T05:34:43.114Z,29.03
2018-12-23T05:37:09.742Z,30.50
2018-12-23T05:39:36.239Z,31.53
2018-12-23T05:42:02.768Z,28.47
2018-12-23T05:44:29.313Z,29.20
2018-12-23T05:46:55.898Z,26.60
2018-12-23T05:49:22.482Z,28.83
2018-12-23T05:51:49.106Z,24.70
2018-12-23T05:54:15.766Z,29.00
2018-12-23T05:56:42.452Z,25.23
2018-12-23T05:59:09.094Z,28.80
2018-12-23T06:01:35.680Z,30.87
2018-12-23T06:04:02.440Z,32.27
2018-12-23T06:06:29.011Z,29.43
2018-12-23T06:08:55.655Z,29.30
2018-12-23T06:11:22.573Z,27.07
2018-12-23T06:13:49.148Z,26.90
2018-12-23T06:16:15.722Z,27.57
2018-12-23T06:18:42.409Z,32.13
2018-12-23T06:21:09.054Z,27.27
2018-12-23T06:23:35.573Z,25.23
2018-12-23T06:26:02.175Z,24.10
2018-12-23T06:28:28.741Z,26.40
2018-12-23T06:30:55.390Z,25.00
2018-12-23T06:33:22.087Z,27.00
2018-12-23T06:35:48.709Z,27.83
2018-12-23T06:38:15.196Z,23.40
2018-12-23T06:40:41.828Z,27.90
2018-12-23T06:43:08.390Z,23.73
2018-12-23T06:45:35.037Z,25.50
2018-12-23T06:48:01.708Z,24.63
2018-12-23T06:50:28.329Z,24.57
2018-12-23T06:52:54.857Z,22.50
2018-12-23T06:55:21.666Z,26.63
2018-12-23T06:57:48.344Z,24.50
2018-12-23T07:00:14.873Z,27.00
2018-12-23T07:02:41.652Z,27.77
2018-12-23T07:05:08.287Z,25.90
2018-12-23T07:07:34.942Z,25.43
2018-12-23T07:10:01.629Z,21.57
2018-12-23T07:12:28.167Z,23.40
2018-12-23T07:14:54.764Z,24.37
2018-12-23T07:17:21.555Z,25.13
2018-12-23T07:19:48.223Z,27.37
2018-12-23T07:22:14.840Z,23.83
2018-12-23T07:24:41.422Z,24.30
2018-12-23T07:27:08.236Z,36.20
2018-12-23T07:29:34.743Z,24.00
2018-12-23T07:32:01.340Z,22.77
2018-12-23T07:34:27.973Z,23.97
2018-12-23T07:36:54.705Z,27.83
2018-12-23T07:39:21.630Z,24.50
2018-12-23T07:41:48.249Z,22.30
2018-12-23T07:44:14.768Z,22.37
2018-12-23T07:46:41.317Z,21.47
2018-12-23T07:49:07.882Z,21.90
2018-12-23T07:51:34.611Z,26.00
2018-12-23T07:54:01.260Z,20.77
2018-12-23T07:56:27.882Z,23.73
2018-12-23T07:58:54.509Z,19.50
2018-12-23T08:01:21.356Z,22.90
2018-12-23T08:03:48.011Z,21.70
2018-12-23T08:06:14.688Z,17.63
2018-12-23T08:08:41.361Z,19.73
2018-12-23T08:11:07.860Z,17.20
2018-12-23T08:13:34.409Z,18.03
2018-12-23T08:16:03.097Z,15.87
2018-12-23T08:18:29.693Z,17.67
2018-12-23T08:20:56.313Z,17.80
2018-12-23T08:23:23.213Z,16.00
2018-12-23T08:25:49.833Z,16.37
2018-12-23T08:28:16.375Z,15.70
2018-12-23T08:30:42.969Z,21.63
2018-12-23T08:33:09.604Z,17.43
2018-12-23T08:35:36.247Z,16.73
2018-12-23T08:38:02.931Z,14.60
2018-12-23T08:40:29.553Z,14.93
2018-12-23T08:42:56.143Z,14.63
2018-12-23T08:45:22.925Z,13.80
2018-12-23T08:47:49.520Z,14.20
2018-12-23T08:50:16.069Z,14.73
2018-12-23T08:52:42.738Z,16.47
2018-12-23T08:55:09.345Z,11.90
2018-12-23T08:57:35.933Z,16.50
2018-12-23T09:00:03.742Z,16.33
2018-12-23T09:02:30.385Z,14.83
2018-12-23T09:04:57.040Z,12.67
2018-12-23T09:07:23.705Z,10.60
2018-12-23T09:09:50.277Z,17.37
2018-12-23T09:12:16.897Z,14.63
2018-12-23T09:14:43.793Z,13.87
2018-12-23T09:17:10.437Z,18.90
2018-12-23T09:19:37.065Z,14.57
2018-12-23T09:22:03.949Z,14.70
2018-12-23T09:24:30.575Z,13.93
2018-12-23T09:26:57.071Z,13.93
2018-12-23T09:29:23.646Z,10.90
2018-12-23T09:31:50.273Z,10.90
2018-12-23T09:34:16.857Z,15.93
2018-12-23T09:36:43.502Z,17.00
2018-12-23T09:39:10.125Z,15.20
2018-12-23T09:41:36.624Z,17.40
2018-12-23T09:44:03.403Z,13.27
2018-12-23T09:46:30.069Z,14.50
2018-12-23T09:48:56.692Z,14.40
2018-12-23T09:51:23.478Z,11.67
2018-12-23T09:53:50.205Z,12.70
2018-12-23T09:56:16.934Z,17.13
2018-12-23T09:58:43.566Z,16.07
2018-12-23T10:01:10.128Z,19.43
2018-12-23T10:03:36.781Z,31.43
2018-12-23T10:06:03.450Z,15.03
2018-12-23T10:08:30.069Z,27.73
2018-12-23T10:10:56.588Z,23.30
2018-12-23T10:13:23.393Z,19.90
2018-12-23T10:15:50.079Z,12.97
2018-12-23T10:18:16.782Z,11.33
2018-12-23T10:20:43.481Z,12.73
2018-12-23T10:23:10.082Z,16.67
2018-12-23T10:25:36.699Z,15.37
2018-12-23T10:28:03.510Z,13.83
2018-12-23T10:30:30.145Z,14.73
2018-12-23T10:32:56.771Z,14.03
2018-12-23T10:35:23.328Z,10.50
2018-12-23T10:37:49.894Z,14.37
2018-12-23T10:40:16.546Z,20.70
2018-12-23T10:42:43.324Z,14.30
2018-12-23T10:45:09.908Z,17.90
2018-12-23T10:47:36.444Z,12.23
2018-12-23T10:50:03.228Z,12.70
2018-12-23T10:52:29.785Z,16.63
2018-12-23T10:54:56.372Z,14.60
2018-12-23T10:57:23.027Z,12.60
2018-12-23T10:59:49.653Z,10.90
2018-12-23T11:02:16.305Z,12.40
2018-12-23T11:04:42.937Z,9.27
2018-12-23T11:07:09.443Z,8.13
2018-12-23T11:09:35.965Z,12.83
2018-12-23T11:12:02.767Z,11.40
2018-12-23T11:14:29.391Z,9.93
2018-12-23T11:16:56.156Z,8.50
2018-12-23T11:19:22.979Z,10.10
2018-12-23T11:21:49.554Z,9.13
2018-12-23T11:24:16.342Z,10.67
2018-12-23T11:26:43.127Z,9.53
2018-12-23T11:29:09.793Z,12.67
2018-12-23T11:31:36.437Z,7.77
2018-12-23T11:34:03.030Z,7.93
2018-12-23T11:36:29.678Z,9.30
2018-12-23T11:38:56.298Z,12.50
2018-12-23T11:41:23.173Z,19.53
2018-12-23T11:43:49.836Z,17.57
2018-12-23T11:46:16.377Z,16.27
2018-12-23T11:48:42.966Z,13.13
2018-12-23T11:51:09.604Z,15.67
2018-12-23T11:53:36.149Z,18.60
2018-12-23T11:56:03.239Z,20.43
2018-12-23T11:58:29.894Z,23.10
2018-12-23T12:00:56.384Z,12.60
2018-12-23T12:03:23.300Z,16.10
2018-12-23T12:05:49.849Z,18.30
2018-12-23T12:08:16.443Z,21.17
2018-12-23T12:10:43.123Z,11.40
2018-12-23T12:13:09.702Z,17.60
2018-12-23T12:15:36.329Z,17.70
2018-12-23T12:18:03.136Z,16.20
2018-12-23T12:20:29.845Z,17.40
2018-12-23T12:22:56.531Z,17.13
2018-12-23T12:25:23.165Z,13.10
2018-12-23T12:27:49.721Z,19.03
2018-12-23T12:30:16.382Z,21.50
2018-12-23T12:32:42.971Z,22.60
2018-12-23T12:35:09.499Z,19.63
2018-12-23T12:37:36.012Z,20.67
2018-12-23T12:40:03.023Z,16.83
2018-12-23T12:42:49.444Z,20.60
2018-12-23T12:45:36.100Z,21.87
2018-12-23T12:48:02.608Z,17.30
2018-12-23T12:50:49.015Z,18.03
2018-12-23T12:53:35.765Z,26.30
2018-12-23T12:56:22.428Z,30.37
2018-12-23T12:59:08.922Z,23.13
2018-12-23T13:01:55.771Z,22.60
2018-12-23T13:04:42.407Z,28.23
2018-12-23T13:07:28.841Z,24.40
2018-12-23T13:10:15.281Z,20.70
2018-12-23T13:13:01.742Z,20.20
2018-12-23T13:15:48.174Z,24.03
2018-12-23T13:18:34.862Z,23.07
2018-12-23T13:21:21.378Z,26.90
2018-12-23T13:24:08.053Z,29.60
2018-12-23T13:26:54.510Z,28.17
2018-12-23T14:02:21.583Z,26.47
2018-12-23T14:05:08.115Z,24.63
2018-12-23T14:07:54.875Z,19.97
2018-12-23T14:10:41.352Z,24.43
2018-12-23T14:13:27.896Z,24.40
2018-12-23T14:16:14.472Z,25.27
2018-12-23T14:19:01.230Z,34.47
2018-12-23T14:21:47.791Z,29.83
2018-12-23T14:24:34.323Z,35.20
2018-12-23T14:27:20.870Z,32.83
2018-12-23T14:30:07.607Z,26.83
2018-12-23T15:41:33.201Z,20.70
2018-12-23T15:44:10.681Z,26.33
2018-12-23T18:42:50.216Z,31.37
2018-12-23T18:45:16.785Z,32.93
2018-12-23T18:47:43.455Z,34.50
2018-12-23T18:50:10.086Z,35.47
2018-12-23T18:52:36.734Z,34.73
2018-12-23T18:55:04.209Z,38.10
2018-12-23T18:57:30.889Z,35.40
2018-12-23T18:59:57.596Z,32.50
2018-12-23T19:02:25.537Z,31.97
2018-12-23T19:04:52.388Z,38.93
2018-12-23T19:07:18.955Z,39.10
2018-12-23T19:09:46.047Z,34.87
2018-12-23T19:12:21.001Z,39.73
2018-12-23T19:14:58.685Z,43.17
2018-12-23T19:17:30.361Z,40.07
2018-12-23T19:20:01.864Z,31.77
2018-12-23T19:22:33.092Z,34.77
2018-12-23T19:25:10.537Z,33.77
2018-12-23T19:27:39.045Z,29.63
2018-12-23T19:30:16.911Z,35.10
2018-12-23T19:32:45.646Z,39.90
2018-12-23T19:35:14.047Z,35.53
2018-12-23T19:37:54.606Z,33.67
2018-12-23T19:40:35.113Z,36.00
2018-12-23T19:43:09.340Z,32.77
2018-12-23T19:45:53.071Z,29.83
2018-12-23T19:48:38.685Z,34.60
2018-12-23T19:51:07.209Z,33.10
2018-12-23T19:53:42.304Z,36.67
2018-12-23T19:56:13.591Z,36.27
2018-12-23T19:58:59.224Z,27.90
2018-12-23T20:01:30.720Z,39.47
2018-12-23T20:04:17.356Z,34.77
2018-12-23T20:06:48.862Z,34.93
2018-12-23T20:09:17.284Z,43.53
2018-12-23T20:11:55.019Z,35.97
2018-12-23T20:14:35.495Z,37.10
2018-12-23T20:17:21.060Z,43.57
2018-12-23T20:19:52.289Z,35.83
2018-12-23T20:22:29.932Z,44.43
2018-12-23T20:25:01.547Z,33.03
2018-12-23T20:27:47.300Z,63.00
2018-12-23T20:30:21.551Z,42.97
2018-12-23T20:33:02.545Z,37.63
2018-12-23T20:35:34.041Z,32.37
2018-12-23T20:38:05.724Z,36.27
2018-12-23T20:40:40.008Z,32.20
2018-12-23T20:43:08.427Z,57.60
2018-12-23T20:45:42.661Z,32.80
2018-12-23T20:48:14.397Z,37.77
2018-12-23T20:50:52.239Z,33.23
2018-12-23T20:53:21.216Z,40.13
2018-12-23T20:56:06.276Z,63.07
2018-12-23T20:58:35.034Z,34.30
2018-12-23T21:01:20.181Z,43.57
2018-12-23T21:03:48.893Z,53.00
2018-12-23T21:06:26.268Z,38.03
2018-12-23T21:08:54.983Z,40.87
2018-12-23T21:11:29.299Z,30.20
2018-12-23T21:13:57.739Z,29.50
2018-12-23T21:16:29.403Z,31.80
2018-12-23T21:19:00.763Z,32.93
2018-12-23T21:21:38.491Z,37.43
2018-12-23T21:24:07.259Z,35.80
2018-12-23T21:26:38.688Z,30.87
2018-12-23T21:29:22.540Z,34.43
2018-12-23T21:31:50.952Z,34.50
2018-12-23T21:34:36.615Z,37.67
2018-12-23T21:37:21.825Z,32.37
2018-12-23T21:39:50.581Z,34.10
2018-12-23T21:42:24.844Z,35.87
2018-12-23T21:45:05.460Z,34.23
2018-12-23T21:47:36.835Z,31.13
2018-12-23T21:50:05.372Z,35.00
2018-12-23T21:52:40.067Z,33.07
2018-12-23T21:55:08.697Z,33.33
2018-12-23T21:57:52.335Z,30.77
2018-12-23T22:00:30.099Z,31.90
2018-12-23T22:03:05.203Z,37.67
2018-12-23T22:05:42.682Z,31.20
2018-12-23T22:08:23.390Z,34.70
2018-12-23T22:10:51.901Z,36.63
2018-12-23T22:13:24.209Z,36.33
2018-12-23T22:15:51.143Z,36.30
2018-12-23T22:18:17.648Z,33.47
2018-12-23T22:20:44.159Z,36.00
2018-12-23T22:23:11.046Z,37.57
2018-12-23T22:25:37.638Z,30.90
2018-12-23T22:28:04.156Z,28.40
2018-12-23T22:30:30.716Z,34.53
2018-12-23T22:32:59.299Z,32.47
2018-12-23T22:35:25.845Z,32.90
2018-12-23T22:37:52.753Z,38.97
2018-12-23T22:40:19.357Z,39.37
2018-12-23T22:42:45.893Z,36.33
2018-12-23T22:45:12.776Z,35.63
2018-12-23T22:47:39.404Z,28.80
2018-12-23T22:50:05.928Z,38.17
2018-12-23T22:52:32.710Z,38.03
2018-12-23T22:54:59.315Z,34.40
2018-12-23T22:57:25.960Z,34.30
2018-12-23T22:59:52.466Z,38.67
2018-12-23T23:02:19.029Z,32.30
2018-12-23T23:04:45.779Z,32.90
2018-12-23T23:07:12.519Z,29.20
2018-12-23T23:09:39.045Z,32.60
2018-12-23T23:12:05.568Z,28.03
2018-12-23T23:14:32.181Z,27.77
2018-12-23T23:16:58.684Z,25.57
2018-12-23T23:19:25.229Z,30.10
2018-12-23T23:21:51.870Z,25.53
2018-12-23T23:24:18.367Z,29.03
2018-12-23T23:26:44.882Z,24.13
2018-12-23T23:29:11.632Z,27.60
2018-12-23T23:31:38.208Z,14.73
2018-12-23T23:34:04.708Z,23.37
2018-12-23T23:36:31.481Z,16.70
2018-12-23T23:38:57.975Z,13.10
2018-12-23T23:41:24.475Z,23.03
2018-12-23T23:43:51.015Z,13.70
2018-12-23T23:46:17.553Z,26.70
2018-12-23T23:48:44.160Z,19.50
2018-12-23T23:51:10.999Z,12.90
2018-12-23T23:53:37.629Z,12.73
2018-12-23T23:56:04.213Z,14.00
2018-12-23T23:58:30.983Z,12.83
